createdAt,value
2022-09-12T00:00:26.468Z,26.33
2022-09-12T00:10:32.616Z,26.30
2022-09-12T00:20:39.538Z,26.28
2022-09-12T00:30:46.478Z,26.25
2022-09-12T00:40:53.056Z,26.22
2022-09-12T00:50:59.374Z,26.18
2022-09-12T01:01:06.100Z,26.17
2022-09-12T01:11:12.929Z,26.13
2022-09-12T01:21:19.597Z,26.12
2022-09-12T01:31:26.553Z,26.09
2022-09-12T01:41:33.083Z,26.07
2022-09-12T01:51:39.385Z,26.05
2022-09-12T02:01:46.634Z,26.04
2022-09-12T02:11:53.304Z,26.02
2022-09-12T02:22:00.141Z,26.00
2022-09-12T02:32:07.229Z,26.00
2022-09-12T02:42:13.476Z,25.98
2022-09-12T02:52:19.552Z,25.96
2022-09-12T03:02:26.198Z,25.95
2022-09-12T03:12:32.768Z,25.94
2022-09-12T03:22:38.897Z,25.93
2022-09-12T03:32:45.455Z,25.91
2022-09-12T03:42:52.027Z,25.92
2022-09-12T03:52:58.999Z,25.91
2022-09-12T04:03:05.895Z,25.89
2022-09-12T04:13:12.861Z,25.87
2022-09-12T04:23:19.428Z,25.85
2022-09-12T04:33:26.374Z,25.85
2022-09-12T04:43:32.797Z,25.83
2022-09-12T04:53:39.463Z,25.84
2022-09-12T05:03:45.724Z,25.83
2022-09-12T05:13:52.186Z,25.82
2022-09-12T05:23:59.157Z,25.81
2022-09-12T05:34:05.625Z,25.85
2022-09-12T05:44:12.194Z,25.89
2022-09-12T05:54:18.193Z,25.95
2022-09-12T06:04:24.645Z,26.00
2022-09-12T06:14:30.961Z,26.03
2022-09-12T06:24:37.613Z,26.03
2022-09-12T06:34:44.419Z,26.08
2022-09-12T06:44:51.258Z,26.09
2022-09-12T06:54:57.663Z,26.10
2022-09-12T07:05:04.279Z,26.15
2022-09-12T07:15:10.705Z,26.13
2022-09-12T07:25:17.663Z,26.10
2022-09-12T07:35:24.378Z,26.10
2022-09-12T07:45:30.632Z,26.19
2022-09-12T07:55:37.560Z,26.21
2022-09-12T08:05:44.285Z,26.24
2022-09-12T08:15:50.910Z,26.21
2022-09-12T08:25:57.641Z,26.22
2022-09-12T08:36:04.632Z,26.25
2022-09-12T08:46:10.972Z,26.28
2022-09-12T08:56:17.748Z,26.26
2022-09-12T09:06:24.502Z,26.30
2022-09-12T09:16:30.724Z,26.32
2022-09-12T09:26:37.523Z,26.35
2022-09-12T09:36:44.379Z,26.32
2022-09-12T09:46:51.041Z,26.26
2022-09-12T09:56:57.917Z,26.23
2022-09-12T10:07:04.326Z,26.20
2022-09-12T10:17:10.875Z,26.19
2022-09-12T10:27:17.246Z,26.24
2022-09-12T10:37:23.774Z,26.32
2022-09-12T10:47:30.420Z,26.34
2022-09-12T10:57:37.400Z,26.29
2022-09-12T11:07:43.669Z,26.33
2022-09-12T11:17:50.596Z,26.44
2022-09-12T11:27:57.554Z,26.44
2022-09-12T11:38:04.112Z,26.40
2022-09-12T11:48:10.519Z,26.37
2022-09-12T11:58:16.699Z,26.35
2022-09-12T12:08:23.024Z,26.42
2022-09-12T12:18:29.244Z,26.40
2022-09-12T12:28:35.865Z,26.37
2022-09-12T12:38:41.932Z,26.41
2022-09-12T12:48:48.096Z,26.41
2022-09-12T12:58:54.603Z,26.38
2022-09-12T13:09:00.675Z,26.39
2022-09-12T13:19:07.333Z,26.48
2022-09-12T13:29:13.408Z,26.47
2022-09-12T13:39:19.696Z,26.49
2022-09-12T13:49:25.963Z,26.49
2022-09-12T13:59:33.076Z,26.45
2022-09-12T14:09:39.908Z,26.50
2022-09-12T14:19:46.954Z,26.50
2022-09-12T14:29:53.472Z,26.49
2022-09-12T14:40:00.540Z,26.47
2022-09-12T14:50:11.091Z,26.51
2022-09-12T15:00:18.122Z,26.57
2022-09-12T15:10:24.915Z,26.53
2022-09-12T15:20:31.462Z,26.53
2022-09-12T15:30:38.435Z,26.56
2022-09-12T15:40:45.142Z,26.57
2022-09-12T15:50:52.551Z,26.54
2022-09-12T16:00:59.071Z,26.57
2022-09-12T16:11:05.738Z,26.57
2022-09-12T16:21:15.147Z,26.62
2022-09-12T16:31:23.631Z,26.52
2022-09-12T16:41:30.696Z,26.52
2022-09-12T16:51:37.880Z,26.51
2022-09-12T17:01:45.431Z,26.52
2022-09-12T17:11:52.766Z,26.51
2022-09-12T17:22:00.169Z,26.55
2022-09-12T17:32:07.476Z,26.52
2022-09-12T17:42:16.226Z,26.52
2022-09-12T17:52:23.564Z,26.52
2022-09-12T18:02:33.243Z,26.50
2022-09-12T18:12:40.623Z,26.49
2022-09-12T18:22:47.751Z,26.44
2022-09-12T18:32:54.745Z,26.41
2022-09-12T18:43:01.145Z,26.38
2022-09-12T18:53:07.628Z,26.36
2022-09-12T19:03:14.304Z,26.35
2022-09-12T19:13:20.867Z,26.31
2022-09-12T19:23:27.146Z,26.32
2022-09-12T19:33:33.001Z,26.31
2022-09-12T19:43:39.081Z,26.29
2022-09-12T19:53:45.267Z,26.27
2022-09-12T20:03:52.353Z,26.23
2022-09-12T20:13:58.900Z,26.21
2022-09-12T20:24:05.136Z,26.21
2022-09-12T20:34:11.270Z,26.21
2022-09-12T20:44:17.516Z,26.17
2022-09-12T20:54:23.906Z,26.17
2022-09-12T21:04:30.285Z,26.17
2022-09-12T21:14:37.455Z,26.26
2022-09-12T21:24:44.051Z,26.28
2022-09-12T21:34:50.332Z,26.30
2022-09-12T21:44:56.540Z,26.32
2022-09-12T21:55:02.998Z,26.29
2022-09-12T22:05:10.092Z,26.36
2022-09-12T22:15:39.580Z,26.34
2022-09-12T22:25:28.669Z,26.35
2022-09-12T22:35:35.319Z,26.29
2022-09-12T22:45:41.650Z,26.30
2022-09-12T22:55:48.381Z,26.32
2022-09-12T23:05:54.542Z,26.30
2022-09-12T23:16:01.072Z,26.42
2022-09-12T23:26:07.246Z,26.44
2022-09-12T23:36:13.594Z,26.35
2022-09-12T23:46:22.623Z,26.27
2022-09-12T23:56:29.185Z,26.23
